sensor_id;sensor_type;location;lat;lon;timestamp;temperature;humidity
70294;DHT22;74367;35.280;-77.632;2024-02-15T00:00:13;10.89;60.56
70294;DHT22;74367;35.280;-77.632;2024-02-15T00:02:41;10.96;61.00
70294;DHT22;74367;35.280;-77.632;2024-02-15T00:05:08;11.04;60.25
70294;DHT22;74367;35.280;-77.632;2024-02-15T00:07:35;11.01;60.34
70294;DHT22;74367;35.280;-77.632;2024-02-15T00:10:01;10.89;63.42
70294;DHT22;74367;35.280;-77.632;2024-02-15T00:12:29;10.51;66.45
70294;DHT22;74367;35.280;-77.632;2024-02-15T00:14:56;10.42;70.24
70294;DHT22;74367;35.280;-77.632;2024-02-15T00:17:24;10.59;70.64
70294;DHT22;74367;35.280;-77.632;2024-02-15T00:19:51;10.60;69.86
70294;DHT22;74367;35.280;-77.632;2024-02-15T00:22:17;10.53;71.21
70294;DHT22;74367;35.280;-77.632;2024-02-15T00:24:42;10.41;69.33
70294;DHT22;74367;35.280;-77.632;2024-02-15T00:27:11;10.27;69.27
70294;DHT22;74367;35.280;-77.632;2024-02-15T00:29:37;10.30;66.54
70294;DHT22;74367;35.280;-77.632;2024-02-15T00:32:03;10.38;67.42
70294;DHT22;74367;35.280;-77.632;2024-02-15T00:34:29;10.41;66.68
70294;DHT22;74367;35.280;-77.632;2024-02-15T00:36:55;10.58;66.73
70294;DHT22;74367;35.280;-77.632;2024-02-15T00:39:21;10.51;68.05
70294;DHT22;74367;35.280;-77.632;2024-02-15T00:41:47;10.51;66.18
70294;DHT22;74367;35.280;-77.632;2024-02-15T00:44:14;10.37;66.60
70294;DHT22;74367;35.280;-77.632;2024-02-15T00:46:41;10.12;66.94
70294;DHT22;74367;35.280;-77.632;2024-02-15T00:49:07;10.15;66.01
70294;DHT22;74367;35.280;-77.632;2024-02-15T00:51:34;10.07;66.56
70294;DHT22;74367;35.280;-77.632;2024-02-15T00:54:01;10.08;66.28
70294;DHT22;74367;35.280;-77.632;2024-02-15T00:56:28;10.12;65.75
70294;DHT22;74367;35.280;-77.632;2024-02-15T00:58:55;9.95;64.35
70294;DHT22;74367;35.280;-77.632;2024-02-15T01:01:22;10.07;64.24
70294;DHT22;74367;35.280;-77.632;2024-02-15T01:03:48;10.17;65.63
70294;DHT22;74367;35.280;-77.632;2024-02-15T01:06:14;10.08;67.58
70294;DHT22;74367;35.280;-77.632;2024-02-15T01:08:41;10.04;67.90
70294;DHT22;74367;35.280;-77.632;2024-02-15T01:11:07;10.00;69.02
70294;DHT22;74367;35.280;-77.632;2024-02-15T01:13:34;9.87;71.41
70294;DHT22;74367;35.280;-77.632;2024-02-15T01:16:01;10.07;68.88
70294;DHT22;74367;35.280;-77.632;2024-02-15T01:18:31;10.07;67.85
70294;DHT22;74367;35.280;-77.632;2024-02-15T01:20:58;10.04;68.61
70294;DHT22;74367;35.280;-77.632;2024-02-15T01:23:24;9.91;68.10
70294;DHT22;74367;35.280;-77.632;2024-02-15T01:25:52;9.66;68.92
70294;DHT22;74367;35.280;-77.632;2024-02-15T01:28:18;9.73;68.87
70294;DHT22;74367;35.280;-77.632;2024-02-15T01:30:45;9.54;72.16
70294;DHT22;74367;35.280;-77.632;2024-02-15T01:33:13;9.54;72.70
70294;DHT22;74367;35.280;-77.632;2024-02-15T01:35:39;9.33;74.01
70294;DHT22;74367;35.280;-77.632;2024-02-15T01:38:05;9.18;76.44
70294;DHT22;74367;35.280;-77.632;2024-02-15T01:40:32;9.12;75.85
70294;DHT22;74367;35.280;-77.632;2024-02-15T01:42:58;9.16;75.52
70294;DHT22;74367;35.280;-77.632;2024-02-15T01:45:26;9.29;74.14
70294;DHT22;74367;35.280;-77.632;2024-02-15T01:47:54;9.46;74.75
70294;DHT22;74367;35.280;-77.632;2024-02-15T01:50:21;9.63;74.30
70294;DHT22;74367;35.280;-77.632;2024-02-15T01:52:49;9.60;73.20
70294;DHT22;74367;35.280;-77.632;2024-02-15T01:55:18;9.63;71.00
70294;DHT22;74367;35.280;-77.632;2024-02-15T01:57:45;9.49;71.18
70294;DHT22;74367;35.280;-77.632;2024-02-15T02:00:12;9.42;70.05
70294;DHT22;74367;35.280;-77.632;2024-02-15T02:02:41;9.36;71.31
70294;DHT22;74367;35.280;-77.632;2024-02-15T02:05:08;9.33;71.77
70294;DHT22;74367;35.280;-77.632;2024-02-15T02:07:34;9.39;70.50
70294;DHT22;74367;35.280;-77.632;2024-02-15T02:10:01;9.31;70.22
70294;DHT22;74367;35.280;-77.632;2024-02-15T02:12:28;9.21;69.61
70294;DHT22;74367;35.280;-77.632;2024-02-15T02:14:54;8.85;70.57
70294;DHT22;74367;35.280;-77.632;2024-02-15T02:17:20;8.98;69.59
70294;DHT22;74367;35.280;-77.632;2024-02-15T02:19:47;9.00;69.74
70294;DHT22;74367;35.280;-77.632;2024-02-15T02:22:16;9.05;70.32
70294;DHT22;74367;35.280;-77.632;2024-02-15T02:25:20;8.91;71.78
70294;DHT22;74367;35.280;-77.632;2024-02-15T02:27:47;9.02;73.05
70294;DHT22;74367;35.280;-77.632;2024-02-15T02:30:15;8.57;74.60
70294;DHT22;74367;35.280;-77.632;2024-02-15T02:32:45;8.40;77.95
70294;DHT22;74367;35.280;-77.632;2024-02-15T02:35:14;8.06;78.59
70294;DHT22;74367;35.280;-77.632;2024-02-15T02:37:42;7.88;79.32
70294;DHT22;74367;35.280;-77.632;2024-02-15T02:40:11;7.85;79.65
70294;DHT22;74367;35.280;-77.632;2024-02-15T02:43:06;8.30;79.10
70294;DHT22;74367;35.280;-77.632;2024-02-15T02:45:33;8.60;79.26
70294;DHT22;74367;35.280;-77.632;2024-02-15T02:47:59;8.33;79.84
70294;DHT22;74367;35.280;-77.632;2024-02-15T02:50:24;8.67;78.43
70294;DHT22;74367;35.280;-77.632;2024-02-15T02:52:51;8.74;77.81
70294;DHT22;74367;35.280;-77.632;2024-02-15T02:55:17;8.61;75.58
70294;DHT22;74367;35.280;-77.632;2024-02-15T02:57:43;8.51;75.18
70294;DHT22;74367;35.280;-77.632;2024-02-15T03:00:12;8.34;75.82
70294;DHT22;74367;35.280;-77.632;2024-02-15T03:02:47;8.46;75.35
70294;DHT22;74367;35.280;-77.632;2024-02-15T03:05:13;8.53;73.93
70294;DHT22;74367;35.280;-77.632;2024-02-15T03:07:40;8.49;75.54
70294;DHT22;74367;35.280;-77.632;2024-02-15T03:10:07;8.59;76.34
70294;DHT22;74367;35.280;-77.632;2024-02-15T03:12:34;8.63;76.82
70294;DHT22;74367;35.280;-77.632;2024-02-15T03:15:04;8.21;78.51
70294;DHT22;74367;35.280;-77.632;2024-02-15T03:17:30;8.16;80.01
70294;DHT22;74367;35.280;-77.632;2024-02-15T03:19:59;8.22;81.23
70294;DHT22;74367;35.280;-77.632;2024-02-15T03:22:28;8.23;81.86
70294;DHT22;74367;35.280;-77.632;2024-02-15T03:24:54;8.29;81.29
70294;DHT22;74367;35.280;-77.632;2024-02-15T03:27:20;8.29;80.58
70294;DHT22;74367;35.280;-77.632;2024-02-15T03:29:49;8.28;81.44
70294;DHT22;74367;35.280;-77.632;2024-02-15T03:32:15;8.30;82.00
70294;DHT22;74367;35.280;-77.632;2024-02-15T03:34:42;8.53;80.81
70294;DHT22;74367;35.280;-77.632;2024-02-15T03:37:08;8.64;79.41
70294;DHT22;74367;35.280;-77.632;2024-02-15T03:39:35;8.42;78.99
70294;DHT22;74367;35.280;-77.632;2024-02-15T03:42:03;8.47;76.70
70294;DHT22;74367;35.280;-77.632;2024-02-15T03:44:29;8.53;75.40
70294;DHT22;74367;35.280;-77.632;2024-02-15T03:46:56;8.50;75.42
70294;DHT22;74367;35.280;-77.632;2024-02-15T03:49:22;8.36;74.08
70294;DHT22;74367;35.280;-77.632;2024-02-15T03:51:48;8.19;74.99
70294;DHT22;74367;35.280;-77.632;2024-02-15T03:54:14;8.14;77.29
70294;DHT22;74367;35.280;-77.632;2024-02-15T03:56:48;7.95;77.86
70294;DHT22;74367;35.280;-77.632;2024-02-15T03:59:17;8.10;78.10
70294;DHT22;74367;35.280;-77.632;2024-02-15T04:01:45;8.26;77.75
70294;DHT22;74367;35.280;-77.632;2024-02-15T04:04:13;8.01;79.68
70294;DHT22;74367;35.280;-77.632;2024-02-15T04:06:39;7.98;81.64
70294;DHT22;74367;35.280;-77.632;2024-02-15T04:09:07;7.98;82.74
70294;DHT22;74367;35.280;-77.632;2024-02-15T04:11:34;8.17;81.25
70294;DHT22;74367;35.280;-77.632;2024-02-15T04:14:00;8.16;80.59
70294;DHT22;74367;35.280;-77.632;2024-02-15T04:16:26;8.19;81.12
70294;DHT22;74367;35.280;-77.632;2024-02-15T04:18:54;8.37;80.11
70294;DHT22;74367;35.280;-77.632;2024-02-15T04:21:22;8.32;79.99
70294;DHT22;74367;35.280;-77.632;2024-02-15T04:23:48;8.34;77.98
70294;DHT22;74367;35.280;-77.632;2024-02-15T04:26:15;8.26;76.88
70294;DHT22;74367;35.280;-77.632;2024-02-15T04:28:41;8.26;76.08
70294;DHT22;74367;35.280;-77.632;2024-02-15T04:31:07;8.16;75.07
70294;DHT22;74367;35.280;-77.632;2024-02-15T04:33:38;8.13;73.49
70294;DHT22;74367;35.280;-77.632;2024-02-15T04:36:05;8.19;73.34
70294;DHT22;74367;35.280;-77.632;2024-02-15T04:38:32;8.09;74.80
70294;DHT22;74367;35.280;-77.632;2024-02-15T04:41:01;8.10;73.27
70294;DHT22;74367;35.280;-77.632;2024-02-15T04:43:29;8.06;73.85
70294;DHT22;74367;35.280;-77.632;2024-02-15T04:45:56;8.01;74.01
70294;DHT22;74367;35.280;-77.632;2024-02-15T04:48:22;7.98;75.13
70294;DHT22;74367;35.280;-77.632;2024-02-15T04:50:50;7.93;77.50
70294;DHT22;74367;35.280;-77.632;2024-02-15T04:53:19;7.93;77.85
70294;DHT22;74367;35.280;-77.632;2024-02-15T04:55:45;8.07;75.29
70294;DHT22;74367;35.280;-77.632;2024-02-15T04:58:11;8.16;74.95
70294;DHT22;74367;35.280;-77.632;2024-02-15T05:00:37;8.16;72.97
70294;DHT22;74367;35.280;-77.632;2024-02-15T05:03:03;8.09;74.45
70294;DHT22;74367;35.280;-77.632;2024-02-15T05:05:29;8.12;72.76
70294;DHT22;74367;35.280;-77.632;2024-02-15T05:07:55;8.03;72.84
70294;DHT22;74367;35.280;-77.632;2024-02-15T05:10:21;8.22;71.32
70294;DHT22;74367;35.280;-77.632;2024-02-15T05:12:47;8.17;73.43
70294;DHT22;74367;35.280;-77.632;2024-02-15T05:15:15;8.17;72.96
70294;DHT22;74367;35.280;-77.632;2024-02-15T05:17:43;8.03;74.67
70294;DHT22;74367;35.280;-77.632;2024-02-15T05:20:10;8.05;73.55
70294;DHT22;74367;35.280;-77.632;2024-02-15T05:22:38;8.14;73.62
70294;DHT22;74367;35.280;-77.632;2024-02-15T05:25:06;8.26;72.38
70294;DHT22;74367;35.280;-77.632;2024-02-15T05:27:34;8.19;72.63
70294;DHT22;74367;35.280;-77.632;2024-02-15T05:30:05;7.99;74.09
70294;DHT22;74367;35.280;-77.632;2024-02-15T05:32:36;7.96;72.97
70294;DHT22;74367;35.280;-77.632;2024-02-15T05:35:08;7.89;74.79
70294;DHT22;74367;35.280;-77.632;2024-02-15T05:37:35;7.92;73.79
70294;DHT22;74367;35.280;-77.632;2024-02-15T05:40:01;8.09;71.53
70294;DHT22;74367;35.280;-77.632;2024-02-15T05:42:27;8.12;71.76
70294;DHT22;74367;35.280;-77.632;2024-02-15T05:44:53;7.98;72.65
70294;DHT22;74367;35.280;-77.632;2024-02-15T05:47:19;8.05;73.85
70294;DHT22;74367;35.280;-77.632;2024-02-15T05:49:45;7.99;75.76
70294;DHT22;74367;35.280;-77.632;2024-02-15T05:52:12;8.05;74.34
70294;DHT22;74367;35.280;-77.632;2024-02-15T05:54:38;8.12;73.38
70294;DHT22;74367;35.280;-77.632;2024-02-15T05:57:07;7.98;73.35
70294;DHT22;74367;35.280;-77.632;2024-02-15T05:59:33;8.07;71.88
70294;DHT22;74367;35.280;-77.632;2024-02-15T06:01:59;7.88;74.00
70294;DHT22;74367;35.280;-77.632;2024-02-15T06:04:26;7.78;73.75
70294;DHT22;74367;35.280;-77.632;2024-02-15T06:06:54;7.44;75.76
70294;DHT22;74367;35.280;-77.632;2024-02-15T06:09:27;7.33;74.57
70294;DHT22;74367;35.280;-77.632;2024-02-15T06:11:55;7.27;76.78
70294;DHT22;74367;35.280;-77.632;2024-02-15T06:14:23;7.35;74.70
70294;DHT22;74367;35.280;-77.632;2024-02-15T06:16:49;7.40;75.28
70294;DHT22;74367;35.280;-77.632;2024-02-15T06:19:17;7.30;75.05
70294;DHT22;74367;35.280;-77.632;2024-02-15T06:21:42;7.46;76.52
70294;DHT22;74367;35.280;-77.632;2024-02-15T06:24:09;7.37;77.89
70294;DHT22;74367;35.280;-77.632;2024-02-15T06:26:36;7.47;74.82
70294;DHT22;74367;35.280;-77.632;2024-02-15T06:29:01;7.51;73.76
70294;DHT22;74367;35.280;-77.632;2024-02-15T06:31:46;7.10;76.61
70294;DHT22;74367;35.280;-77.632;2024-02-15T06:34:30;7.20;75.22
70294;DHT22;74367;35.280;-77.632;2024-02-15T06:37:35;7.19;74.16
70294;DHT22;74367;35.280;-77.632;2024-02-15T06:40:20;7.20;74.26
70294;DHT22;74367;35.280;-77.632;2024-02-15T06:42:46;7.33;74.09
70294;DHT22;74367;35.280;-77.632;2024-02-15T06:45:12;7.35;74.73
70294;DHT22;74367;35.280;-77.632;2024-02-15T06:47:41;7.31;74.42
70294;DHT22;74367;35.280;-77.632;2024-02-15T06:50:13;7.35;74.54
70294;DHT22;74367;35.280;-77.632;2024-02-15T06:52:42;7.35;74.45
70294;DHT22;74367;35.280;-77.632;2024-02-15T06:55:11;7.30;75.03
70294;DHT22;74367;35.280;-77.632;2024-02-15T06:57:39;7.26;75.36
70294;DHT22;74367;35.280;-77.632;2024-02-15T07:00:06;7.14;75.08
70294;DHT22;74367;35.280;-77.632;2024-02-15T07:02:33;7.10;74.82
70294;DHT22;74367;35.280;-77.632;2024-02-15T07:04:59;7.12;75.47
70294;DHT22;74367;35.280;-77.632;2024-02-15T07:07:26;7.00;74.77
70294;DHT22;74367;35.280;-77.632;2024-02-15T07:09:52;7.24;74.89
70294;DHT22;74367;35.280;-77.632;2024-02-15T07:12:18;7.19;75.23
70294;DHT22;74367;35.280;-77.632;2024-02-15T07:14:47;7.04;74.94
70294;DHT22;74367;35.280;-77.632;2024-02-15T07:17:13;6.78;75.15
70294;DHT22;74367;35.280;-77.632;2024-02-15T07:19:45;6.85;75.94
70294;DHT22;74367;35.280;-77.632;2024-02-15T07:22:15;6.75;75.61
70294;DHT22;74367;35.280;-77.632;2024-02-15T07:24:42;6.62;76.45
70294;DHT22;74367;35.280;-77.632;2024-02-15T07:27:08;6.49;77.14
70294;DHT22;74367;35.280;-77.632;2024-02-15T07:29:35;6.69;77.33
70294;DHT22;74367;35.280;-77.632;2024-02-15T07:32:04;6.74;77.42
70294;DHT22;74367;35.280;-77.632;2024-02-15T07:34:30;6.76;79.30
70294;DHT22;74367;35.280;-77.632;2024-02-15T07:36:56;6.72;79.24
70294;DHT22;74367;35.280;-77.632;2024-02-15T07:39:28;6.24;82.64
70294;DHT22;74367;35.280;-77.632;2024-02-15T07:41:54;6.38;82.88
70294;DHT22;74367;35.280;-77.632;2024-02-15T07:44:21;6.56;80.76
70294;DHT22;74367;35.280;-77.632;2024-02-15T07:46:50;6.54;80.54
70294;DHT22;74367;35.280;-77.632;2024-02-15T07:49:16;6.58;81.22
70294;DHT22;74367;35.280;-77.632;2024-02-15T07:51:45;6.21;82.37
70294;DHT22;74367;35.280;-77.632;2024-02-15T07:54:19;6.38;82.83
70294;DHT22;74367;35.280;-77.632;2024-02-15T07:56:48;6.61;82.40
70294;DHT22;74367;35.280;-77.632;2024-02-15T07:59:15;6.59;82.57
70294;DHT22;74367;35.280;-77.632;2024-02-15T08:01:44;6.27;82.58
70294;DHT22;74367;35.280;-77.632;2024-02-15T08:04:13;6.35;81.05
70294;DHT22;74367;35.280;-77.632;2024-02-15T08:06:39;6.07;82.41
70294;DHT22;74367;35.280;-77.632;2024-02-15T08:09:05;5.80;82.98
70294;DHT22;74367;35.280;-77.632;2024-02-15T08:11:31;5.99;81.79
70294;DHT22;74367;35.280;-77.632;2024-02-15T08:13:57;6.24;79.26
70294;DHT22;74367;35.280;-77.632;2024-02-15T08:16:26;6.03;80.37
70294;DHT22;74367;35.280;-77.632;2024-02-15T08:18:55;5.99;80.74
70294;DHT22;74367;35.280;-77.632;2024-02-15T08:21:29;6.00;80.34
70294;DHT22;74367;35.280;-77.632;2024-02-15T08:23:56;5.66;83.33
70294;DHT22;74367;35.280;-77.632;2024-02-15T08:26:22;5.60;83.26
70294;DHT22;74367;35.280;-77.632;2024-02-15T08:28:48;5.04;86.55
70294;DHT22;74367;35.280;-77.632;2024-02-15T08:31:14;5.21;85.69
70294;DHT22;74367;35.280;-77.632;2024-02-15T08:33:45;5.44;85.56
70294;DHT22;74367;35.280;-77.632;2024-02-15T08:36:12;5.75;83.65
70294;DHT22;74367;35.280;-77.632;2024-02-15T08:38:40;5.85;81.97
70294;DHT22;74367;35.280;-77.632;2024-02-15T08:41:12;5.87;80.86
70294;DHT22;74367;35.280;-77.632;2024-02-15T08:43:38;5.67;81.87
70294;DHT22;74367;35.280;-77.632;2024-02-15T08:46:07;5.42;82.86
70294;DHT22;74367;35.280;-77.632;2024-02-15T08:48:33;5.41;83.82
70294;DHT22;74367;35.280;-77.632;2024-02-15T08:51:00;5.62;83.16
70294;DHT22;74367;35.280;-77.632;2024-02-15T08:53:27;5.60;83.14
70294;DHT22;74367;35.280;-77.632;2024-02-15T08:55:53;5.17;85.56
70294;DHT22;74367;35.280;-77.632;2024-02-15T08:58:19;5.18;85.97
70294;DHT22;74367;35.280;-77.632;2024-02-15T09:00:47;4.76;86.34
70294;DHT22;74367;35.280;-77.632;2024-02-15T09:03:12;5.24;86.07
70294;DHT22;74367;35.280;-77.632;2024-02-15T09:05:39;5.65;83.32
70294;DHT22;74367;35.280;-77.632;2024-02-15T09:08:10;5.58;82.83
70294;DHT22;74367;35.280;-77.632;2024-02-15T09:10:36;5.44;82.49
70294;DHT22;74367;35.280;-77.632;2024-02-15T09:13:02;5.36;83.48
70294;DHT22;74367;35.280;-77.632;2024-02-15T09:15:28;5.17;82.95
70294;DHT22;74367;35.280;-77.632;2024-02-15T09:17:56;5.13;82.71
70294;DHT22;74367;35.280;-77.632;2024-02-15T09:20:23;5.14;82.55
70294;DHT22;74367;35.280;-77.632;2024-02-15T09:22:54;5.05;83.19
70294;DHT22;74367;35.280;-77.632;2024-02-15T09:25:22;5.31;81.57
70294;DHT22;74367;35.280;-77.632;2024-02-15T09:27:52;5.14;81.58
70294;DHT22;74367;35.280;-77.632;2024-02-15T09:30:21;4.91;81.24
70294;DHT22;74367;35.280;-77.632;2024-02-15T09:32:50;4.72;82.46
70294;DHT22;74367;35.280;-77.632;2024-02-15T09:35:16;4.49;82.60
70294;DHT22;74367;35.280;-77.632;2024-02-15T09:37:46;4.53;84.17
70294;DHT22;74367;35.280;-77.632;2024-02-15T09:40:16;4.65;83.90
70294;DHT22;74367;35.280;-77.632;2024-02-15T09:42:44;4.72;83.03
70294;DHT22;74367;35.280;-77.632;2024-02-15T09:45:12;4.55;83.62
70294;DHT22;74367;35.280;-77.632;2024-02-15T09:47:42;4.76;83.25
70294;DHT22;74367;35.280;-77.632;2024-02-15T09:50:13;4.84;82.60
70294;DHT22;74367;35.280;-77.632;2024-02-15T09:52:43;4.95;82.74
70294;DHT22;74367;35.280;-77.632;2024-02-15T09:55:10;4.94;82.33
70294;DHT22;74367;35.280;-77.632;2024-02-15T09:57:44;4.79;83.39
70294;DHT22;74367;35.280;-77.632;2024-02-15T10:00:12;4.93;83.27
70294;DHT22;74367;35.280;-77.632;2024-02-15T10:02:43;4.86;84.60
70294;DHT22;74367;35.280;-77.632;2024-02-15T10:05:12;5.00;84.08
70294;DHT22;74367;35.280;-77.632;2024-02-15T10:12:48;4.88;84.82
70294;DHT22;74367;35.280;-77.632;2024-02-15T10:15:38;4.49;85.85
70294;DHT22;74367;35.280;-77.632;2024-02-15T10:18:08;4.42;87.08
70294;DHT22;74367;35.280;-77.632;2024-02-15T10:20:37;4.56;87.14
70294;DHT22;74367;35.280;-77.632;2024-02-15T10:25:34;4.50;90.20
70294;DHT22;74367;35.280;-77.632;2024-02-15T10:28:04;4.87;89.32
70294;DHT22;74367;35.280;-77.632;2024-02-15T10:30:37;5.08;89.03
70294;DHT22;74367;35.280;-77.632;2024-02-15T10:33:04;4.70;89.37
70294;DHT22;74367;35.280;-77.632;2024-02-15T10:35:31;4.98;89.99
70294;DHT22;74367;35.280;-77.632;2024-02-15T10:38:06;5.15;89.57
70294;DHT22;74367;35.280;-77.632;2024-02-15T10:40:33;5.14;90.49
70294;DHT22;74367;35.280;-77.632;2024-02-15T10:42:59;5.20;90.08
70294;DHT22;74367;35.280;-77.632;2024-02-15T10:45:30;5.03;90.85
70294;DHT22;74367;35.280;-77.632;2024-02-15T10:47:59;5.25;90.85
70294;DHT22;74367;35.280;-77.632;2024-02-15T10:50:25;4.41;95.15
70294;DHT22;74367;35.280;-77.632;2024-02-15T10:52:56;4.76;94.83
70294;DHT22;74367;35.280;-77.632;2024-02-15T10:55:43;5.25;93.53
70294;DHT22;74367;35.280;-77.632;2024-02-15T10:58:13;5.42;92.62
70294;DHT22;74367;35.280;-77.632;2024-02-15T11:00:44;5.52;91.75
70294;DHT22;74367;35.280;-77.632;2024-02-15T11:03:19;5.69;91.10
70294;DHT22;74367;35.280;-77.632;2024-02-15T11:05:47;5.30;92.79
70294;DHT22;74367;35.280;-77.632;2024-02-15T11:08:14;5.15;92.53
70294;DHT22;74367;35.280;-77.632;2024-02-15T11:10:40;5.23;92.48
70294;DHT22;74367;35.280;-77.632;2024-02-15T11:13:10;5.31;91.65
70294;DHT22;74367;35.280;-77.632;2024-02-15T11:18:07;4.14;94.83
70294;DHT22;74367;35.280;-77.632;2024-02-15T11:23:00;3.90;96.44
70294;DHT22;74367;35.280;-77.632;2024-02-15T11:25:36;4.09;95.88
70294;DHT22;74367;35.280;-77.632;2024-02-15T11:28:38;4.28;95.44
70294;DHT22;74367;35.280;-77.632;2024-02-15T11:31:07;4.21;94.64
70294;DHT22;74367;35.280;-77.632;2024-02-15T11:33:35;4.21;94.34
70294;DHT22;74367;35.280;-77.632;2024-02-15T11:36:12;3.93;95.40
70294;DHT22;74367;35.280;-77.632;2024-02-15T11:38:39;3.84;96.50
70294;DHT22;74367;35.280;-77.632;2024-02-15T11:41:18;4.08;95.37
70294;DHT22;74367;35.280;-77.632;2024-02-15T11:46:22;4.18;95.38
70294;DHT22;74367;35.280;-77.632;2024-02-15T11:48:51;4.31;93.69
70294;DHT22;74367;35.280;-77.632;2024-02-15T11:51:33;4.52;93.42
70294;DHT22;74367;35.280;-77.632;2024-02-15T11:54:09;4.38;93.90
70294;DHT22;74367;35.280;-77.632;2024-02-15T11:56:52;4.79;92.19
70294;DHT22;74367;35.280;-77.632;2024-02-15T11:59:44;4.83;90.80
70294;DHT22;74367;35.280;-77.632;2024-02-15T12:02:32;4.98;90.97
70294;DHT22;74367;35.280;-77.632;2024-02-15T12:05:17;5.01;90.27
70294;DHT22;74367;35.280;-77.632;2024-02-15T12:08:16;5.04;89.53
70294;DHT22;74367;35.280;-77.632;2024-02-15T12:11:01;4.87;90.55
70294;DHT22;74367;35.280;-77.632;2024-02-15T12:13:52;4.98;90.45
70294;DHT22;74367;35.280;-77.632;2024-02-15T12:16:36;5.07;90.32
70294;DHT22;74367;35.280;-77.632;2024-02-15T12:19:21;4.95;91.20
70294;DHT22;74367;35.280;-77.632;2024-02-15T12:21:48;4.59;91.47
70294;DHT22;74367;35.280;-77.632;2024-02-15T12:24:14;4.74;92.99
70294;DHT22;74367;35.280;-77.632;2024-02-15T12:26:42;4.73;91.90
70294;DHT22;74367;35.280;-77.632;2024-02-15T12:29:17;4.77;92.32
70294;DHT22;74367;35.280;-77.632;2024-02-15T12:31:43;4.65;92.32
70294;DHT22;74367;35.280;-77.632;2024-02-15T12:34:10;4.48;92.82
70294;DHT22;74367;35.280;-77.632;2024-02-15T12:36:37;4.86;92.21
70294;DHT22;74367;35.280;-77.632;2024-02-15T12:39:05;4.95;92.02
70294;DHT22;74367;35.280;-77.632;2024-02-15T12:41:39;5.24;90.42
70294;DHT22;74367;35.280;-77.632;2024-02-15T12:44:08;6.95;87.10
70294;DHT22;74367;35.280;-77.632;2024-02-15T12:46:36;10.35;73.64
70294;DHT22;74367;35.280;-77.632;2024-02-15T12:51:54;12.44;66.08
70294;DHT22;74367;35.280;-77.632;2024-02-15T12:54:39;12.30;65.96
70294;DHT22;74367;35.280;-77.632;2024-02-15T12:57:08;11.62;65.21
70294;DHT22;74367;35.280;-77.632;2024-02-15T12:59:39;11.86;67.98
70294;DHT22;74367;35.280;-77.632;2024-02-15T13:02:05;12.34;65.00
70294;DHT22;74367;35.280;-77.632;2024-02-15T13:04:31;13.50;62.15
70294;DHT22;74367;35.280;-77.632;2024-02-15T13:06:57;11.41;66.08
70294;DHT22;74367;35.280;-77.632;2024-02-15T13:09:23;11.55;67.93
70294;DHT22;74367;35.280;-77.632;2024-02-15T13:11:49;11.95;66.65
70294;DHT22;74367;35.280;-77.632;2024-02-15T13:14:16;10.58;69.19
70294;DHT22;74367;35.280;-77.632;2024-02-15T13:16:41;9.23;75.22
70294;DHT22;74367;35.280;-77.632;2024-02-15T13:19:12;8.56;76.16
70294;DHT22;74367;35.280;-77.632;2024-02-15T13:21:38;9.33;73.19
70294;DHT22;74367;35.280;-77.632;2024-02-15T13:24:04;12.34;66.40
70294;DHT22;74367;35.280;-77.632;2024-02-15T13:26:31;12.63;63.84
70294;DHT22;74367;35.280;-77.632;2024-02-15T13:28:58;10.96;66.71
70294;DHT22;74367;35.280;-77.632;2024-02-15T13:31:24;11.55;67.32
70294;DHT22;74367;35.280;-77.632;2024-02-15T13:33:50;11.09;68.76
70294;DHT22;74367;35.280;-77.632;2024-02-15T13:36:16;11.24;67.51
70294;DHT22;74367;35.280;-77.632;2024-02-15T13:38:42;11.95;66.05
70294;DHT22;74367;35.280;-77.632;2024-02-15T13:41:08;11.83;65.64
70294;DHT22;74367;35.280;-77.632;2024-02-15T13:43:34;12.95;61.86
70294;DHT22;74367;35.280;-77.632;2024-02-15T13:46:00;14.94;57.50
70294;DHT22;74367;35.280;-77.632;2024-02-15T13:48:30;13.64;59.25
70294;DHT22;74367;35.280;-77.632;2024-02-15T13:50:57;11.20;64.31
70294;DHT22;74367;35.280;-77.632;2024-02-15T13:53:23;8.78;73.47
70294;DHT22;74367;35.280;-77.632;2024-02-15T13:55:50;8.92;73.99
70294;DHT22;74367;35.280;-77.632;2024-02-15T13:58:17;9.49;73.79
70294;DHT22;74367;35.280;-77.632;2024-02-15T14:00:44;10.84;69.47
70294;DHT22;74367;35.280;-77.632;2024-02-15T14:03:11;10.00;70.37
70294;DHT22;74367;35.280;-77.632;2024-02-15T14:05:37;9.63;73.30
70294;DHT22;74367;35.280;-77.632;2024-02-15T14:08:06;9.11;74.46
70294;DHT22;74367;35.280;-77.632;2024-02-15T14:10:34;9.16;74.05
70294;DHT22;74367;35.280;-77.632;2024-02-15T14:13:02;10.08;72.77
70294;DHT22;74367;35.280;-77.632;2024-02-15T14:15:33;9.15;72.44
70294;DHT22;74367;35.280;-77.632;2024-02-15T14:18:12;9.04;74.44
70294;DHT22;74367;35.280;-77.632;2024-02-15T14:20:46;10.90;69.33
70294;DHT22;74367;35.280;-77.632;2024-02-15T14:23:12;13.42;61.74
70294;DHT22;74367;35.280;-77.632;2024-02-15T14:25:42;11.51;66.03
70294;DHT22;74367;35.280;-77.632;2024-02-15T14:28:08;10.79;68.24
70294;DHT22;74367;35.280;-77.632;2024-02-15T14:30:36;8.92;75.88
70294;DHT22;74367;35.280;-77.632;2024-02-15T14:33:21;9.11;76.92
70294;DHT22;74367;35.280;-77.632;2024-02-15T14:35:49;9.77;74.92
70294;DHT22;74367;35.280;-77.632;2024-02-15T14:38:15;9.43;76.73
70294;DHT22;74367;35.280;-77.632;2024-02-15T14:40:46;9.59;76.46
70294;DHT22;74367;35.280;-77.632;2024-02-15T14:43:16;9.10;77.81
70294;DHT22;74367;35.280;-77.632;2024-02-15T14:45:43;9.50;77.41
70294;DHT22;74367;35.280;-77.632;2024-02-15T14:48:10;9.40;77.51
70294;DHT22;74367;35.280;-77.632;2024-02-15T14:50:36;10.14;74.75
70294;DHT22;74367;35.280;-77.632;2024-02-15T14:53:03;9.76;77.05
70294;DHT22;74367;35.280;-77.632;2024-02-15T14:55:29;9.71;75.88
70294;DHT22;74367;35.280;-77.632;2024-02-15T14:57:57;9.53;76.78
70294;DHT22;74367;35.280;-77.632;2024-02-15T15:00:23;10.01;76.36
70294;DHT22;74367;35.280;-77.632;2024-02-15T15:02:51;10.01;75.86
70294;DHT22;74367;35.280;-77.632;2024-02-15T15:05:16;9.76;75.81
70294;DHT22;74367;35.280;-77.632;2024-02-15T15:08:01;9.81;76.71
70294;DHT22;74367;35.280;-77.632;2024-02-15T15:10:46;9.74;77.08
70294;DHT22;74367;35.280;-77.632;2024-02-15T15:13:32;9.83;76.14
70294;DHT22;74367;35.280;-77.632;2024-02-15T15:15:59;9.93;77.26
70294;DHT22;74367;35.280;-77.632;2024-02-15T15:18:25;9.95;77.47
70294;DHT22;74367;35.280;-77.632;2024-02-15T15:20:51;10.45;75.61
70294;DHT22;74367;35.280;-77.632;2024-02-15T15:23:17;10.66;74.28
70294;DHT22;74367;35.280;-77.632;2024-02-15T15:25:43;11.18;73.95
70294;DHT22;74367;35.280;-77.632;2024-02-15T15:28:09;11.34;72.43
70294;DHT22;74367;35.280;-77.632;2024-02-15T15:30:35;12.05;70.75
70294;DHT22;74367;35.280;-77.632;2024-02-15T15:33:03;13.94;63.45
70294;DHT22;74367;35.280;-77.632;2024-02-15T15:35:29;14.29;64.55
70294;DHT22;74367;35.280;-77.632;2024-02-15T15:37:58;13.74;65.09
70294;DHT22;74367;35.280;-77.632;2024-02-15T15:40:24;13.29;67.44